Time;durP1;ratioP1;P1;durP2;ratioP2;P2;SDS_P1;SDS_P2;PMS_P1;PMS_P2;Temp;Humidity;BMP_temperature;BMP_pressure;BME280_temperature;BME280_humidity;BME280_pressure;Samples;Min_cycle;Max_cycle;Signal;HPM_P1;HPM_P2
2021/01/25 12:55:10;;;;;;;7.55;4.85;;;;;;;;;;5062542;28;21445;-77
2021/01/25 12:57:36;;;;;;;;;;;;;;;;;;5064179;28;20033;-77
2021/01/25 13:00:04;;;;;;;7.80;6.18;;;;;;;;;;5062560;28;20410;-76
2021/01/25 13:02:30;;;;;;;7.63;6.00;;;;;;;;;;5042346;28;20063;-76
2021/01/25 13:04:56;;;;;;;6.50;5.07;;;;;;;;;;5081195;28;20056;-76
2021/01/25 13:07:22;;;;;;;8.27;5.70;;;;;;;;;;5076626;28;20456;-75
2021/01/25 13:09:48;;;;;;;9.57;6.55;;;;;;;;;;5074928;28;20419;-75
2021/01/25 13:12:14;;;;;;;8.40;6.43;;;;;;;;;;5042551;28;20029;-75
2021/01/25 13:14:40;;;;;;;10.95;6.15;;;;;;;;;;5062459;27;20025;-75
2021/01/25 13:17:06;;;;;;;8.70;6.53;;;;;;;;;;5042569;28;20454;-75
2021/01/25 13:19:32;;;;;;;8.38;6.07;;;;;;;;;;5064622;28;20486;-75
2021/01/25 13:21:58;;;;;;;8.85;5.20;;;;;;;;;;5042831;28;20044;-75
2021/01/25 13:24:24;;;;;;;7.47;5.03;;;;;;;;;;5041371;28;20033;-75
2021/01/25 13:26:50;;;;;;;8.95;6.07;;;;;;;;;;5043018;28;20077;-74
2021/01/25 13:29:16;;;;;;;8.93;5.55;;;;;;;;;;5043268;28;20037;-76
2021/01/25 13:31:42;;;;;;;8.40;5.45;;;;;;;;;;5063641;27;20029;-77
2021/01/25 13:34:08;;;;;;;8.80;5.28;;;;;;;;;;5063706;28;20025;-76
2021/01/25 13:36:34;;;;;;;6.93;4.63;;;;;;;;;;5043031;28;20100;-75
2021/01/25 13:39:00;;;;;;;7.78;5.47;;;;;;;;;;5076906;28;20040;-75
2021/01/25 13:41:26;;;;;;;8.85;5.57;;;;;;;;;;5035072;28;20033;-75
2021/01/25 13:43:52;;;;;;;8.07;5.72;;;;;;;;;;5041734;28;20029;-76
2021/01/25 13:46:18;;;;;;;11.95;5.93;;;;;;;;;;5043070;28;20025;-75
2021/01/25 13:48:44;;;;;;;9.80;5.45;;;;;;;;;;5090209;28;20418;-76
2021/01/25 13:51:11;;;;;;;7.20;4.65;;;;;;;;;;5042851;28;20162;-76
2021/01/25 13:53:37;;;;;;;9.18;6.45;;;;;;;;;;5058235;28;20090;-75
2021/01/25 13:56:04;;;;;;;9.15;6.15;;;;;;;;;;5044188;28;20043;-75
2021/01/25 13:58:29;;;;;;;8.63;6.35;;;3.10;99.90;;;;;;5043188;28;20029;-75
2021/01/25 14:00:55;;;;;;;7.18;5.72;;;;;;;;;;5042648;28;20033;-75
2021/01/25 14:03:21;;;;;;;10.60;5.88;;;;;;;;;;5042326;28;20029;-75
2021/01/25 14:05:48;;;;;;;7.97;5.55;;;;;;;;;;5031596;28;20035;-75
2021/01/25 14:08:14;;;;;;;7.60;5.85;;;;;;;;;;5047775;28;20486;-75
2021/01/25 14:10:40;;;;;;;9.45;6.28;;;;;;;;;;5028855;28;20116;-75
2021/01/25 14:13:06;;;;;;;7.40;5.18;;;;;;;;;;5029334;28;20455;-75
2021/01/25 14:15:32;;;;;;;10.18;5.70;;;;;;;;;;5069388;28;20104;-75
2021/01/25 14:17:58;;;;;;;7.97;5.28;;;;;;;;;;5029497;28;20024;-75
2021/01/25 14:20:24;;;;;;;11.02;6.43;;;;;;;;;;5028744;28;20075;-75
2021/01/25 14:22:50;;;;;;;8.50;6.05;;;;;;;;;;5028688;28;20045;-75
2021/01/25 14:25:18;;;;;;;9.07;5.93;;;;;;;;;;5027989;28;20451;-75
2021/01/25 14:27:44;;;;;;;7.38;5.25;;;;;;;;;;5029130;28;20022;-75
2021/01/25 14:30:13;;;;;;;8.77;5.47;;;;;;;;;;5030933;28;20060;-74
2021/01/25 14:32:39;;;;;;;8.10;4.85;;;;;;;;;;5028162;28;20053;-74
2021/01/25 14:35:06;;;;;;;7.82;4.70;;;;;;;;;;5028105;28;20072;-74
2021/01/25 14:37:32;;;;;;;6.38;4.93;;;;;;;;;;5028916;28;20403;-75
2021/01/25 14:39:58;;;;;;;7.53;5.25;;;;;;;;;;5028559;28;20057;-75
2021/01/25 14:42:24;;;;;;;6.97;5.15;;;;;;;;;;5027874;28;20055;-76
2021/01/25 14:44:50;;;;;;;8.15;5.30;;;;;;;;;;5077339;28;20490;-75
2021/01/25 14:47:16;;;;;;;7.07;4.95;;;;;;;;;;5029467;28;20064;-77
2021/01/25 14:49:42;;;;;;;9.43;5.32;;;;;;;;;;5029228;28;20044;-75
2021/01/25 14:52:08;;;;;;;8.23;5.22;;;;;;;;;;5029843;28;20025;-76
2021/01/25 14:54:34;;;;;;;7.93;5.47;;;;;;;;;;5026683;28;20057;-76
2021/01/25 14:57:00;;;;;;;7.38;5.18;;;;;;;;;;5028646;28;20102;-76
2021/01/25 14:59:26;;;;;;;8.73;5.57;;;;;;;;;;5028909;28;20076;-76
2021/01/25 15:01:52;;;;;;;6.82;5.05;;;;;;;;;;5026625;28;20521;-75
2021/01/25 15:04:20;;;;;;;6.90;4.90;;;;;;;;;;5027865;28;20034;-75
2021/01/25 15:06:46;;;;;;;7.57;4.78;;;;;;;;;;5028341;28;20033;-76
2021/01/25 15:09:12;;;;;;;6.18;4.47;;;;;;;;;;5061762;28;20041;-75
2021/01/25 15:11:38;;;;;;;8.02;5.28;;;;;;;;;;5027841;28;20116;-75
2021/01/25 15:14:04;;;;;;;7.35;5.05;;;;;;;;;;5059968;28;20112;-75
2021/01/25 15:16:30;;;;;;;7.40;4.75;;;;;;;;;;5026377;28;20053;-76
2021/01/25 15:18:56;;;;;;;5.70;4.25;;;;;;;;;;5028460;28;20030;-75
2021/01/25 15:21:22;;;;;;;7.35;4.63;;;;;;;;;;5047128;28;20542;-75
2021/01/25 15:23:48;;;;;;;9.10;5.45;;;;;;;;;;5028588;28;20041;-75
2021/01/25 15:26:14;;;;;;;6.45;4.85;;;;;;;;;;5027825;28;20038;-75
2021/01/25 15:28:40;;;;;;;11.40;7.35;;;;;;;;;;5028172;28;20030;-75
2021/01/25 15:31:07;;;;;;;8.75;5.35;;;;;;;;;;5027607;28;20043;-75
2021/01/25 15:33:33;;;;;;;8.25;6.68;;;;;;;;;;5055602;28;20026;-75
2021/01/25 15:35:59;;;;;;;7.50;4.95;;;;;;;;;;5028434;28;20055;-75
2021/01/25 15:38:25;;;;;;;7.72;5.18;;;;;;;;;;5027981;28;20490;-75
2021/01/25 15:40:51;;;;;;;9.18;5.47;;;;;;;;;;5027504;28;20040;-75
2021/01/25 15:43:17;;;;;;;8.50;5.20;;;;;;;;;;5024225;28;20558;-75
2021/01/25 15:45:43;;;;;;;4.60;2.40;;;;;;;;;;5026811;28;20038;-75
2021/01/25 15:48:09;;;;;;;1.77;1.20;;;;;;;;;;5027705;28;20081;-75
2021/01/25 15:50:35;;;;;;;1.60;0.95;;;;;;;;;;5046286;28;20045;-75
2021/01/25 15:53:01;;;;;;;1.33;0.93;;;;;;;;;;5029347;28;20443;-75
2021/01/25 15:55:28;;;;;;;6.28;3.80;;;;;;;;;;5026572;28;20469;-75
2021/01/25 15:57:54;;;;;;;2.45;1.63;;;;;;;;;;5027478;28;20099;-75
2021/01/25 16:00:21;;;;;;;4.22;1.88;;;;;;;;;;5027900;28;20128;-75
2021/01/25 16:02:48;;;;;;;5.32;2.50;;;;;;;;;;5029513;28;20037;-75
2021/01/25 16:05:14;;;;;;;4.18;2.10;;;;;;;;;;5047886;28;20017;-74
2021/01/25 16:07:41;;;;;;;3.03;1.80;;;;;;;;;;5028982;28;20028;-77
2021/01/25 16:10:07;;;;;;;1.83;1.35;;;;;;;;;;5010965;28;20034;-76
2021/01/25 16:12:33;;;;;;;2.00;1.42;;;;;;;;;;5028330;28;20029;-74
2021/01/25 16:14:59;;;;;;;1.60;1.27;;;;;;;;;;5028922;28;20099;-74
2021/01/25 16:17:26;;;;;;;4.13;2.80;;;;;;;;;;5029256;28;20028;-75
2021/01/25 16:19:52;;;;;;;3.58;2.80;;;;;;;;;;5029264;28;20025;-74
2021/01/25 16:22:18;;;;;;;3.85;2.30;;;;;;;;;;5026830;28;20026;-78
2021/01/25 16:24:44;;;;;;;2.78;1.95;;;;;;;;;;5023511;28;20538;-74
2021/01/25 16:27:10;;;;;;;5.72;2.65;;;;;;;;;;5007276;28;20043;-76
2021/01/25 16:29:37;;;;;;;3.75;2.15;;;;;;;;;;5024374;28;20037;-80
2021/01/25 16:32:03;;;;;;;3.10;1.58;;;;;;;;;;5039572;28;20036;-74
2021/01/25 16:34:29;;;;;;;3.30;1.70;;;;;;;;;;5045175;28;20078;-78
2021/01/25 16:36:55;;;;;;;2.63;1.67;;;;;;;;;;5049920;28;20029;-78
2021/01/25 16:39:21;;;;;;;4.95;1.83;;;;;;;;;;5050647;28;20062;-78
2021/01/25 16:41:54;;;;;;;2.45;1.67;;;;;;;;;;5035298;28;20077;-76
2021/01/25 16:44:21;;;;;;;2.70;1.65;;;;;;;;;;5025736;28;20022;-75
2021/01/25 16:46:47;;;;;;;2.80;1.77;;;;;;;;;;5008843;28;20038;-77
2021/01/25 16:49:13;;;;;;;2.90;1.60;;;;;;;;;;5042816;28;20043;-77
2021/01/25 16:51:39;;;;;;;3.80;2.00;;;;;;;;;;5046404;28;20473;-77
2021/01/25 16:54:05;;;;;;;2.47;1.70;;;;;;;;;;5045815;28;20035;-78
2021/01/25 16:56:31;;;;;;;1.88;1.30;;;;;;;;;;5046891;28;20064;-77
2021/01/25 16:58:57;;;;;;;3.05;1.30;;;;;;;;;;5048031;28;20025;-78
2021/01/25 17:01:23;;;;;;;2.58;1.58;;;;;;;;;;5047397;28;20036;-78
2021/01/25 17:03:49;;;;;;;3.08;1.88;;;;;;;;;;5032634;28;20500;-77
2021/01/25 17:06:16;;;;;;;2.97;1.67;;;;;;;;;;5052191;28;20029;-77
2021/01/25 17:08:43;;;;;;;2.03;1.45;;;;;;;;;;5034169;28;20024;-77
2021/01/25 17:11:09;;;;;;;2.67;1.73;;;;;;;;;;5011025;28;20104;-77
2021/01/25 17:13:36;;;;;;;4.68;3.10;;;;;;;;;;5025863;28;20091;-75
2021/01/25 17:16:03;;;;;;;7.47;4.20;;;;;;;;;;5028170;28;20064;-77
2021/01/25 17:18:29;;;;;;;10.85;6.68;;;;;;;;;;5027485;28;20113;-78
2021/01/25 17:20:55;;;;;;;14.75;8.27;;;;;;;;;;5009184;28;20030;-75
2021/01/25 17:23:21;;;;;;;13.25;9.35;;;;;;;;;;5026905;28;20236;-77
2021/01/25 17:25:48;;;;;;;14.77;9.65;;;;;;;;;;5028835;28;20026;-78
2021/01/25 17:28:18;;;;;;;15.10;10.88;;;;;;;;;;5029694;28;20029;-78
2021/01/25 17:30:44;;;;;;;18.95;11.27;;;;;;;;;;5013110;28;20021;-79
2021/01/25 17:33:10;;;;;;;18.52;11.85;;;;;;;;;;5026209;28;20030;-77
2021/01/25 17:35:36;;;;;;;21.17;12.35;;;;;;;;;;5089264;28;20038;-77
2021/01/25 17:38:04;;;;;;;19.05;12.43;;;;;;;;;;5041314;28;20021;-77
2021/01/25 17:40:30;;;;;;;21.23;13.57;;;;;;;;;;5050329;28;20497;-77
2021/01/25 17:42:56;;;;;;;22.30;13.48;;;;;;;;;;5035470;28;20036;-77
2021/01/25 17:45:24;;;;;;;24.38;14.48;;;;;;;;;;5034004;28;20033;-77
2021/01/25 17:47:50;;;;;;;23.83;14.13;;;;;;;;;;5016342;28;20045;-77
2021/01/25 17:50:18;;;;;;;19.95;12.68;;;;;;;;;;5034441;28;20112;-78
2021/01/25 17:52:47;;;;;;;23.15;14.38;;;;;;;;;;5033623;28;20029;-77
2021/01/25 17:55:17;;;;;;;19.35;12.68;;;;;;;;;;5030312;28;20033;-75
2021/01/25 17:57:43;;;;;;;21.23;12.50;;;;;;;;;;5031286;28;20025;-75
2021/01/25 18:00:10;;;;;;;20.88;13.75;;;;;;;;;;5031110;28;20026;-76
2021/01/25 18:02:36;;;;;;;18.60;12.30;;;;;;;;;;5030983;28;20497;-78
2021/01/25 18:05:02;;;;;;;21.73;12.25;;;;;;;;;;5046709;28;20117;-75
2021/01/25 18:07:28;;;;;;;18.73;12.23;;;;;;;;;;5031108;28;20040;-75
2021/01/25 18:09:54;;;;;;;17.50;12.13;;;;;;;;;;5031171;28;20034;-74
2021/01/25 18:12:20;;;;;;;23.40;13.57;;;;;;;;;;5030437;28;20442;-75
2021/01/25 18:14:46;;;;;;;23.00;14.05;;;;;;;;;;5030777;28;20108;-75
2021/01/25 18:17:12;;;;;;;17.50;12.15;;;;;;;;;;5030948;28;20025;-75
2021/01/25 18:19:38;;;;;;;22.95;13.73;;;;;;;;;;5031042;28;20468;-75
2021/01/25 18:22:04;;;;;;;21.85;13.30;;;;;;;;;;5046078;28;20113;-78
2021/01/25 18:24:30;;;;;;;24.55;13.43;;;;;;;;;;5030176;28;20105;-75
2021/01/25 18:26:56;;;;;;;21.15;13.00;;;;;;;;;;5030761;28;20037;-78
2021/01/25 18:29:22;;;;;;;22.73;13.50;;;;;;;;;;5026968;28;20030;-79
2021/01/25 18:31:48;;;;;;;24.35;13.93;;;;;;;;;;5010214;28;20029;-78
2021/01/25 18:34:14;;;;;;;21.42;13.70;;;;;;;;;;5026056;28;20311;-78
2021/01/25 18:36:40;;;;;;;21.83;14.25;;;;;;;;;;5026703;28;20030;-78
2021/01/25 18:39:07;;;;;;;22.60;14.13;;;;;;;;;;5028102;28;20029;-79
2021/01/25 18:41:33;;;;;;;25.33;14.88;;;;;;;;;;5046589;28;20025;-79
2021/01/25 18:43:59;;;;;;;29.08;15.07;;;;;;;;;;5028469;28;20109;-79
2021/01/25 18:46:25;;;;;;;20.75;14.10;;;;;;;;;;5028008;28;20030;-77
2021/01/25 18:48:51;;;;;;;21.52;12.95;;;;;;;;;;5026451;28;20572;-78
2021/01/25 18:51:17;;;;;;;22.35;14.77;;;;;;;;;;5026406;28;20443;-79
